Red Bluff Municipal Airport
KRBL : now visible

Airfield :











YOU CAN JOIN US ON...

 
LOGIN :

Register | Disclaimer

   EN    FR    IT 

 









Legend :    VFR   Marginal VFR   IFR   Intensive IFR   Very Intensive IFR
Visi :
Ceiling :
>= 8 km
>= 3000ft
5 to 8 km
1000 to 3000 ft
1500m to 5 km
500 to 1000 ft
800 to 1500m
200 to 500 ft
< 800m
< 200 ft
Symbols :   Thunderstorms  Fog  Heavy snow  Heavy precipitations  Wind > 20 kt






- Airport Elevation : 352 ft


KRBL - Red Bluff Municipal

CURRENT METAR :
  • 280154Z AUTO 18007KT 10SM CLR 37/01 A2978 RMK AO2 SLP079 T03720011

EXPIRED METARs :
  • 280054Z AUTO VRB06KT 10SM CLR 37/08 A2978 RMK AO2 SLP080 T03720078
  • 272354Z AUTO 13008KT 10SM CLR 37/08 A2979 RMK AO2 SLP083 T03720083 10378 20317 58015

TAF KRBL
Valid from the 28 at 00:00 until the 29 at 00:00 UTC


272327Z 2800/2824 16007KT P6SM SKC
FM280400 VRB05KT P6SM SKC
FM282000 15007KT P6SM SKC
KZOA FIR / North America



MET'MAP, your aeronautical weather chart ! - Copyright ORBIFLY December 2007 - Disclaimer

ORBIFLY MET'MAP TEAM :

Programming & Development : Alexandra Zaïnal
Concept & original design : Baudouin d'Aumeries
Assistance for programming : Marc-Olivier Méhu
Technical & hardware support : Manuel Goepfert

Contact : metmap@orbifly.com




SOURCES & CREDITS :

   NOAA       Earth
Advisory